Time;durP1;ratioP1;P1;durP2;ratioP2;P2;SDS_P1;SDS_P2;PMS_P1;PMS_P2;Temp;Humidity;BMP_temperature;BMP_pressure;BME280_temperature;BME280_humidity;BME280_pressure;Samples;Min_cycle;Max_cycle;Signal;HPM_P1;HPM_P2
2023/04/08 00:00:36;;;;;;;14.13;9.20;;;6.50;99.90;;;;;;4961254;28;20230;-74
2023/04/08 00:03:02;;;;;;;16.80;10.33;;;6.40;99.90;;;;;;4962101;28;20218;-75
2023/04/08 00:05:27;;;;;;;19.93;10.57;;;6.50;99.90;;;;;;4966129;28;20674;-74
2023/04/08 00:07:53;;;;;;;16.67;9.70;;;6.50;99.90;;;;;;4965051;28;20836;-75
2023/04/08 00:10:19;;;;;;;16.27;10.43;;;6.50;99.90;;;;;;4961133;28;20187;-73
2023/04/08 00:12:47;;;;;;;17.03;11.03;;;6.50;99.90;;;;;;4978833;28;20208;-75
2023/04/08 00:15:13;;;;;;;17.83;11.00;;;6.60;99.90;;;;;;4960641;28;20222;-74
2023/04/08 00:17:40;;;;;;;18.50;11.67;;;6.50;99.90;;;;;;4967723;28;20214;-73
2023/04/08 00:20:06;;;;;;;20.13;12.50;;;6.50;99.90;;;;;;4961150;28;20254;-73
2023/04/08 00:22:32;;;;;;;20.53;13.67;;;6.40;99.90;;;;;;4965113;28;20289;-75
2023/04/08 00:24:57;;;;;;;21.83;13.30;;;6.40;99.90;;;;;;4963496;28;20265;-72
2023/04/08 00:27:24;;;;;;;26.20;14.57;;;6.50;99.90;;;;;;4963160;28;20202;-74
2023/04/08 00:29:50;;;;;;;21.37;13.40;;;6.50;99.90;;;;;;4969042;28;20229;-75
2023/04/08 00:32:16;;;;;;;24.93;13.77;;;6.40;99.90;;;;;;4963215;28;20215;-74
2023/04/08 00:34:42;;;;;;;25.43;14.20;;;6.40;99.90;;;;;;4960555;28;20243;-75
2023/04/08 00:37:07;;;;;;;22.40;14.13;;;6.40;99.90;;;;;;4960251;28;20187;-74
2023/04/08 00:39:33;;;;;;;26.07;15.77;;;6.40;99.90;;;;;;4960350;28;20207;-74
2023/04/08 00:42:00;;;;;;;23.80;14.23;;;6.40;99.90;;;;;;4963438;28;20314;-72
2023/04/08 00:44:26;;;;;;;27.20;15.03;;;6.50;99.90;;;;;;4964259;28;20210;-73
2023/04/08 00:46:52;;;;;;;27.93;15.77;;;6.50;99.90;;;;;;4962906;28;20214;-74
2023/04/08 00:49:18;;;;;;;32.03;16.27;;;6.60;99.90;;;;;;4963327;28;20666;-75
2023/04/08 00:51:44;;;;;;;28.90;15.40;;;6.50;99.90;;;;;;4966442;28;20184;-74
2023/04/08 00:54:10;;;;;;;30.67;16.77;;;6.40;99.90;;;;;;4963658;28;20267;-74
2023/04/08 00:56:36;;;;;;;30.43;17.03;;;6.40;99.90;;;;;;4969367;28;20217;-74
2023/04/08 00:59:02;;;;;;;32.83;17.23;;;6.40;99.90;;;;;;4964756;28;20211;-74
2023/04/08 01:01:36;;;;;;;28.03;16.37;;;6.50;99.90;;;;;;4967258;28;20198;-75
2023/04/08 01:04:27;;;;;;;32.50;17.93;;;6.40;99.90;;;;;;4964212;28;20211;-73
2023/04/08 01:07:19;;;;;;;34.67;17.63;;;6.40;99.90;;;;;;4967857;28;20218;-74
2023/04/08 01:09:49;;;;;;;34.77;17.87;;;6.30;99.90;;;;;;4985029;28;20214;-74
2023/04/08 01:12:26;;;;;;;33.57;17.83;;;6.30;99.90;;;;;;4965803;28;20219;-74
2023/04/08 01:14:54;;;;;;;34.10;17.57;;;6.40;99.90;;;;;;4960118;28;20214;-75
2023/04/08 01:17:21;;;;;;;32.63;18.67;;;6.30;99.90;;;;;;4964144;28;20740;-73
2023/04/08 01:19:48;;;;;;;33.77;18.13;;;6.30;99.90;;;;;;4966494;28;20222;-74
2023/04/08 01:22:39;;;;;;;33.93;18.50;;;6.40;99.90;;;;;;4964221;28;20206;-74
2023/04/08 01:25:11;;;;;;;34.33;17.80;;;6.40;99.90;;;;;;4966278;28;20186;-73
2023/04/08 01:27:38;;;;;;;35.47;18.70;;;6.50;99.90;;;;;;4966004;28;20314;-74
2023/04/08 01:30:05;;;;;;;35.73;18.67;;;6.50;99.90;;;;;;4965585;28;20222;-74
2023/04/08 01:32:32;;;;;;;32.53;18.20;;;6.50;99.90;;;;;;4965370;28;20225;-74
2023/04/08 01:34:59;;;;;;;36.17;18.63;;;6.50;99.90;;;;;;4964659;28;20218;-72
2023/04/08 01:37:28;;;;;;;38.70;19.37;;;6.50;99.90;;;;;;4966403;28;20186;-75
2023/04/08 01:39:54;;;;;;;39.43;19.37;;;6.50;99.90;;;;;;4964918;28;20230;-74
2023/04/08 01:42:23;;;;;;;40.90;20.20;;;6.50;99.90;;;;;;4967121;28;20206;-74
2023/04/08 01:44:51;;;;;;;37.77;20.17;;;6.40;99.90;;;;;;4967792;28;20216;-74
2023/04/08 01:47:18;;;;;;;33.17;19.00;;;6.50;99.90;;;;;;4967365;28;20218;-74
2023/04/08 01:49:44;;;;;;;37.27;20.23;;;6.40;99.90;;;;;;4964874;28;20210;-73
2023/04/08 01:52:11;;;;;;;34.20;18.83;;;6.30;99.90;;;;;;4963649;28;20557;-74
2023/04/08 01:54:37;;;;;;;34.93;18.83;;;6.40;99.90;;;;;;4965526;28;20199;-74
2023/04/08 01:57:07;;;;;;;37.57;19.00;;;6.40;99.90;;;;;;4962421;28;20241;-75
2023/04/08 01:59:37;;;;;;;36.30;20.87;;;6.30;99.90;;;;;;4963830;28;20203;-74
2023/04/08 02:02:05;;;;;;;36.97;20.50;;;6.40;99.90;;;;;;4962442;28;20211;-74
2023/04/08 02:04:33;;;;;;;39.07;19.30;;;6.50;99.90;;;;;;4964074;28;20561;-74
2023/04/08 02:07:00;;;;;;;37.47;19.23;;;6.40;99.90;;;;;;4964827;28;20181;-73
2023/04/08 02:09:26;;;;;;;40.77;20.80;;;6.50;99.90;;;;;;4965025;28;20693;-74
2023/04/08 02:11:52;;;;;;;43.50;20.90;;;6.50;99.90;;;;;;4966609;28;20287;-73
2023/04/08 02:14:17;;;;;;;44.50;22.10;;;6.40;99.90;;;;;;4964613;28;20306;-75
2023/04/08 02:17:08;;;;;;;37.60;20.27;;;6.50;99.90;;;;;;4963827;28;20210;-74
2023/04/08 02:19:53;;;;;;;35.50;19.90;;;6.40;99.90;;;;;;4961420;28;20202;-75
2023/04/08 02:22:35;;;;;;;36.63;18.27;;;6.40;99.90;;;;;;4963996;28;20187;-75
2023/04/08 02:25:07;;;;;;;37.17;19.57;;;6.40;99.90;;;;;;4970207;28;20189;-74
2023/04/08 02:27:34;;;;;;;41.47;22.07;;;6.40;99.90;;;;;;4970707;28;20253;-75
2023/04/08 02:30:03;;;;;;;40.00;21.50;;;6.30;99.90;;;;;;4962477;28;20297;-74
2023/04/08 02:32:31;;;;;;;42.43;21.47;;;6.30;99.90;;;;;;4970029;28;20769;-75
2023/04/08 02:34:59;;;;;;;37.63;19.83;;;6.30;99.90;;;;;;4961494;28;20206;-75
2023/04/08 02:37:27;;;;;;;39.93;20.97;;;6.30;99.90;;;;;;4973302;28;20269;-75
2023/04/08 02:39:52;;;;;;;40.70;20.73;;;6.30;99.90;;;;;;4969221;28;20207;-74
2023/04/08 02:42:18;;;;;;;42.27;19.97;;;6.40;99.90;;;;;;4971810;28;20290;-75
2023/04/08 02:44:44;;;;;;;42.93;20.77;;;6.40;99.90;;;;;;4972017;28;20202;-75
2023/04/08 02:47:09;;;;;;;39.70;20.63;;;6.50;99.90;;;;;;4967082;28;20325;-74
2023/04/08 02:49:35;;;;;;;41.07;19.90;;;6.50;99.90;;;;;;4970645;28;20206;-74
2023/04/08 02:52:01;;;;;;;38.27;20.07;;;6.50;99.90;;;;;;4968666;28;20560;-75
2023/04/08 02:54:26;;;;;;;43.73;21.97;;;6.50;99.90;;;;;;4968121;28;20580;-75
2023/04/08 02:56:52;;;;;;;41.63;20.50;;;6.50;99.90;;;;;;4968959;28;20237;-75
2023/04/08 02:59:17;;;;;;;39.33;20.03;;;6.50;99.90;;;;;;4970517;28;20244;-75
2023/04/08 03:01:43;;;;;;;40.73;20.77;;;6.50;99.90;;;;;;4967312;28;20222;-75
2023/04/08 03:04:09;;;;;;;43.60;20.63;;;6.60;99.90;;;;;;4965353;28;20203;-75
2023/04/08 03:06:34;;;;;;;39.53;19.53;;;6.50;99.90;;;;;;4969500;28;20210;-75
2023/04/08 03:09:00;;;;;;;41.63;19.47;;;6.50;99.90;;;;;;4966025;28;20211;-72
2023/04/08 03:11:26;;;;;;;39.73;20.23;;;6.50;99.90;;;;;;4970678;28;20298;-76
2023/04/08 03:13:51;;;;;;;42.87;19.37;;;6.50;99.90;;;;;;4962517;28;20229;-75
2023/04/08 03:16:17;;;;;;;46.63;20.40;;;6.40;99.90;;;;;;4963024;28;20194;-76
2023/04/08 03:18:42;;;;;;;35.80;19.27;;;6.50;99.90;;;;;;4969029;28;20210;-74
2023/04/08 03:21:08;;;;;;;44.00;20.77;;;6.50;99.90;;;;;;4970965;28;20219;-75
2023/04/08 03:23:34;;;;;;;40.97;21.03;;;6.50;99.90;;;;;;4971336;28;20210;-76
2023/04/08 03:26:00;;;;;;;39.33;19.83;;;6.50;99.90;;;;;;4970735;28;20704;-72
2023/04/08 03:28:25;;;;;;;43.80;20.27;;;6.50;99.90;;;;;;4968947;28;20186;-74
2023/04/08 03:30:51;;;;;;;34.93;20.10;;;6.50;99.90;;;;;;4969859;28;20598;-75
2023/04/08 03:33:17;;;;;;;46.03;21.53;;;6.40;99.90;;;;;;4966493;28;20269;-75
2023/04/08 03:35:42;;;;;;;50.40;22.27;;;6.50;99.90;;;;;;4970487;28;20211;-76
2023/04/08 03:38:08;;;;;;;44.03;21.37;;;6.40;99.90;;;;;;4968152;28;20226;-74
2023/04/08 03:40:34;;;;;;;47.60;20.77;;;6.50;99.90;;;;;;4970670;28;20365;-74
2023/04/08 03:43:00;;;;;;;43.27;21.67;;;6.50;99.90;;;;;;4970209;28;20195;-73
2023/04/08 03:45:25;;;;;;;45.97;20.87;;;6.50;99.90;;;;;;4966672;28;20210;-75
2023/04/08 03:47:51;;;;;;;36.63;19.30;;;6.50;99.90;;;;;;4964458;28;20206;-74
2023/04/08 03:50:16;;;;;;;51.87;21.63;;;6.40;99.90;;;;;;4962829;28;20206;-73
2023/04/08 03:52:42;;;;;;;46.93;20.73;;;6.30;99.90;;;;;;4964015;28;20214;-75
2023/04/08 03:55:08;;;;;;;42.67;22.23;;;6.30;99.90;;;;;;4966322;28;20178;-75
2023/04/08 03:57:34;;;;;;;41.47;20.77;;;6.40;99.90;;;;;;4963350;28;20724;-75
2023/04/08 03:59:59;;;;;;;53.77;27.73;;;6.40;99.90;;;;;;4965979;28;20508;-75
2023/04/08 04:02:25;;;;;;;46.10;22.33;;;6.50;99.90;;;;;;4967684;28;20284;-74
2023/04/08 04:04:50;;;;;;;45.77;22.43;;;6.40;99.90;;;;;;4969260;28;20237;-74
2023/04/08 04:07:16;;;;;;;44.20;22.13;;;6.40;99.90;;;;;;4970696;28;20662;-75
2023/04/08 04:09:42;;;;;;;45.07;21.30;;;6.30;99.90;;;;;;4970009;28;20181;-75
2023/04/08 04:12:07;;;;;;;46.43;23.33;;;6.30;99.90;;;;;;4967406;28;20234;-74
2023/04/08 04:14:33;;;;;;;47.23;22.87;;;6.40;99.90;;;;;;4967567;28;20206;-76
2023/04/08 04:16:58;;;;;;;44.00;22.07;;;6.40;99.90;;;;;;4966394;28;20210;-74
2023/04/08 04:19:24;;;;;;;46.87;23.20;;;6.30;99.90;;;;;;4965693;28;20189;-75
2023/04/08 04:21:50;;;;;;;43.10;21.33;;;6.30;99.90;;;;;;4966541;28;20709;-73
2023/04/08 04:24:15;;;;;;;45.70;21.87;;;6.30;99.90;;;;;;4963400;28;20246;-75
2023/04/08 04:26:41;;;;;;;41.90;20.00;;;6.30;99.90;;;;;;4967166;28;20207;-75
2023/04/08 04:29:07;;;;;;;48.60;22.30;;;6.30;99.90;;;;;;4965368;28;20636;-74
2023/04/08 04:31:32;;;;;;;46.30;22.43;;;6.30;99.90;;;;;;4965112;28;20238;-74
2023/04/08 04:33:58;;;;;;;53.83;22.87;;;6.30;99.90;;;;;;4964916;28;20214;-75
2023/04/08 04:36:24;;;;;;;49.93;23.17;;;6.30;99.90;;;;;;4966955;28;20202;-73
2023/04/08 04:38:50;;;;;;;44.10;22.30;;;6.30;99.90;;;;;;4961250;28;20210;-73
2023/04/08 04:41:15;;;;;;;50.87;23.03;;;6.40;99.90;;;;;;4968751;28;20711;-75
2023/04/08 04:43:41;;;;;;;53.17;24.13;;;6.40;99.90;;;;;;4967959;28;20229;-74
2023/04/08 04:46:07;;;;;;;50.70;25.27;;;6.50;99.90;;;;;;4962543;28;20205;-74
2023/04/08 04:48:34;;;;;;;52.77;24.50;;;6.50;99.90;;;;;;4961023;28;20587;-75
2023/04/08 04:51:01;;;;;;;53.70;24.30;;;6.40;99.90;;;;;;4960605;28;20202;-75
2023/04/08 04:53:27;;;;;;;47.07;23.00;;;6.50;99.90;;;;;;4959709;28;20238;-75
2023/04/08 04:55:54;;;;;;;47.43;22.87;;;6.50;99.90;;;;;;4962381;28;20258;-74
2023/04/08 04:58:20;;;;;;;42.33;22.30;;;6.50;99.90;;;;;;4958986;28;20183;-75
2023/04/08 05:00:45;;;;;;;46.10;23.70;;;6.30;99.90;;;;;;4978402;28;20288;-76
2023/04/08 05:03:12;;;;;;;47.90;22.87;;;6.30;99.90;;;;;;4961485;28;20281;-74
2023/04/08 05:05:37;;;;;;;55.90;24.50;;;6.30;99.90;;;;;;4968485;28;20209;-75
2023/04/08 05:08:03;;;;;;;42.70;23.10;;;6.30;99.90;;;;;;4959900;28;20690;-75
2023/04/08 05:10:29;;;;;;;44.00;22.67;;;6.40;99.90;;;;;;4962670;28;20253;-75
2023/04/08 05:12:55;;;;;;;47.37;22.87;;;6.40;99.90;;;;;;4962149;28;20210;-75
2023/04/08 05:15:21;;;;;;;49.97;22.50;;;6.40;99.90;;;;;;4965088;28;20213;-75
2023/04/08 05:17:47;;;;;;;48.00;23.17;;;6.40;99.90;;;;;;4964874;28;20211;-73
2023/04/08 05:20:12;;;;;;;47.50;23.00;;;6.50;99.90;;;;;;4961081;28;20313;-75
2023/04/08 05:22:38;;;;;;;47.57;23.47;;;6.50;99.90;;;;;;4963396;28;20700;-76
2023/04/08 05:25:05;;;;;;;43.90;21.43;;;6.50;99.90;;;;;;4962417;28;20174;-75
2023/04/08 05:27:30;;;;;;;50.67;22.37;;;6.40;99.90;;;;;;4959352;28;20720;-75
2023/04/08 05:29:56;;;;;;;45.80;22.70;;;6.40;99.90;;;;;;4966325;28;20206;-75
2023/04/08 05:32:22;;;;;;;50.20;24.57;;;6.30;99.90;;;;;;4959408;28;20211;-75
2023/04/08 05:34:48;;;;;;;49.57;23.30;;;6.40;99.90;;;;;;4961586;28;20219;-72
2023/04/08 05:37:14;;;;;;;53.97;23.97;;;6.40;99.90;;;;;;4962667;28;20646;-76
2023/04/08 05:39:39;;;;;;;47.83;23.07;;;6.50;99.90;;;;;;4966254;28;20183;-75
2023/04/08 05:42:05;;;;;;;53.30;25.50;;;6.40;99.90;;;;;;4967913;28;20202;-74
2023/04/08 05:44:30;;;;;;;45.30;23.87;;;6.50;99.90;;;;;;4968656;28;20634;-74
2023/04/08 05:46:57;;;;;;;55.50;25.63;;;6.60;99.90;;;;;;4964313;28;20210;-75
2023/04/08 05:49:22;;;;;;;49.37;24.77;;;6.60;99.90;;;;;;4963321;28;20586;-75
2023/04/08 05:51:48;;;;;;;49.20;24.47;;;6.70;99.90;;;;;;4965413;28;20189;-76
2023/04/08 05:54:14;;;;;;;50.53;23.30;;;6.60;99.90;;;;;;4963540;28;20721;-74
2023/04/08 05:56:39;;;;;;;50.17;24.60;;;6.60;99.90;;;;;;4965389;28;20214;-75
2023/04/08 05:59:05;;;;;;;50.27;24.07;;;6.60;99.90;;;;;;4977640;28;20218;-74
2023/04/08 06:01:31;;;;;;;51.93;24.23;;;6.50;99.90;;;;;;4961028;28;20697;-75
2023/04/08 06:03:56;;;;;;;55.70;26.90;;;6.50;99.90;;;;;;4962623;28;20706;-73
2023/04/08 06:06:22;;;;;;;50.70;24.93;;;6.60;99.90;;;;;;4962815;28;20241;-76
2023/04/08 06:08:48;;;;;;;49.23;24.63;;;6.60;99.90;;;;;;4961883;28;20220;-75
2023/04/08 06:11:14;;;;;;;52.53;24.80;;;6.60;99.90;;;;;;4964475;28;20600;-75
2023/04/08 06:13:39;;;;;;;52.37;26.27;;;6.60;99.90;;;;;;4968761;28;20218;-75
2023/04/08 06:16:19;;;;;;;49.43;24.50;;;6.70;99.90;;;;;;4968186;28;20607;-73
2023/04/08 06:18:44;;;;;;;52.73;25.93;;;6.80;99.90;;;;;;4964027;28;20301;-75
2023/04/08 06:21:10;;;;;;;52.03;24.37;;;6.80;99.90;;;;;;4964139;28;20669;-74
2023/04/08 06:23:36;;;;;;;51.50;25.40;;;6.90;99.90;;;;;;4968275;28;20238;-76
2023/04/08 06:26:02;;;;;;;51.83;27.00;;;6.90;99.90;;;;;;4979338;28;20298;-74
2023/04/08 06:28:31;;;;;;;54.80;25.10;;;6.90;99.90;;;;;;4963212;28;20717;-75
2023/04/08 06:30:57;;;;;;;52.23;24.57;;;7.00;99.90;;;;;;4969621;28;20217;-76
2023/04/08 06:33:23;;;;;;;50.13;26.40;;;7.10;99.90;;;;;;4964330;28;20229;-75
2023/04/08 06:35:48;;;;;;;47.80;24.43;;;7.10;99.90;;;;;;4998619;23;20229;-75
2023/04/08 06:38:14;;;;;;;48.33;24.80;;;7.10;99.90;;;;;;4988874;28;20583;-77
2023/04/08 06:40:40;;;;;;;51.53;25.50;;;7.20;99.90;;;;;;4985473;28;20308;-76
2023/04/08 06:43:06;;;;;;;50.87;25.60;;;7.30;99.90;;;;;;4989442;28;20182;-76
2023/04/08 06:45:32;;;;;;;48.77;24.43;;;7.40;99.90;;;;;;4988444;28;20255;-76
2023/04/08 06:47:58;;;;;;;50.53;24.00;;;7.30;99.90;;;;;;4984544;28;20568;-76
2023/04/08 06:50:24;;;;;;;50.53;24.90;;;7.40;99.90;;;;;;4979920;28;20210;-77
2023/04/08 06:52:50;;;;;;;45.77;23.50;;;7.40;99.90;;;;;;4977625;28;20668;-77
2023/04/08 06:55:16;;;;;;;52.07;25.80;;;7.30;99.90;;;;;;4980889;28;20229;-76
2023/04/08 06:57:41;;;;;;;53.00;26.43;;;7.30;99.90;;;;;;4983987;28;20212;-76
2023/04/08 07:00:07;;;;;;;50.67;26.23;;;7.30;99.90;;;;;;4981175;28;20217;-76
2023/04/08 07:02:34;;;;;;;50.20;24.20;;;7.20;99.90;;;;;;4983213;28;20203;-77
2023/04/08 07:04:59;;;;;;;45.37;23.30;;;7.20;99.90;;;;;;4986103;28;20216;-76
2023/04/08 07:07:25;;;;;;;45.33;23.27;;;7.30;99.90;;;;;;4982063;28;20605;-77
2023/04/08 07:09:51;;;;;;;47.73;24.13;;;7.40;99.90;;;;;;4984229;28;20178;-75
2023/04/08 07:12:17;;;;;;;53.70;25.93;;;7.40;99.90;;;;;;4984107;28;20643;-77
2023/04/08 07:14:42;;;;;;;48.10;22.80;;;7.50;99.90;;;;;;4982773;28;20202;-77
2023/04/08 07:17:08;;;;;;;43.43;23.03;;;7.50;99.90;;;;;;4976821;28;20219;-77
2023/04/08 07:19:33;;;;;;;46.47;24.47;;;7.60;99.90;;;;;;4984391;28;20695;-76
2023/04/08 07:21:59;;;;;;;49.27;24.40;;;7.60;99.90;;;;;;4976896;28;20211;-77
2023/04/08 07:24:25;;;;;;;45.70;23.83;;;7.60;99.90;;;;;;4995097;28;20372;-77
2023/04/08 07:26:51;;;;;;;44.67;24.13;;;7.70;99.90;;;;;;4983379;28;20210;-77
2023/04/08 07:29:16;;;;;;;44.07;22.67;;;7.80;99.90;;;;;;4981145;28;20241;-78
2023/04/08 07:31:43;;;;;;;45.43;23.80;;;8.00;99.90;;;;;;4983455;28;20314;-76
2023/04/08 07:34:09;;;;;;;40.37;23.00;;;8.00;99.90;;;;;;4980749;28;20193;-73
2023/04/08 07:36:35;;;;;;;42.97;22.40;;;8.00;99.90;;;;;;4982346;28;20236;-76
2023/04/08 07:39:01;;;;;;;44.87;23.90;;;8.10;99.90;;;;;;4982893;28;20209;-76
2023/04/08 07:41:27;;;;;;;41.90;22.77;;;8.30;99.90;;;;;;4979185;28;20881;-77
2023/04/08 07:43:52;;;;;;;40.43;22.37;;;8.60;99.90;;;;;;4981026;28;20225;-75
2023/04/08 07:46:19;;;;;;;50.80;24.07;;;8.50;99.90;;;;;;4978848;28;20262;-76
2023/04/08 07:48:45;;;;;;;42.57;23.40;;;8.40;99.90;;;;;;4982525;28;20202;-77
2023/04/08 07:51:11;;;;;;;46.20;23.57;;;8.40;99.90;;;;;;4980114;28;20629;-74
2023/04/08 07:53:37;;;;;;;42.73;23.67;;;8.20;99.90;;;;;;4982550;28;20276;-76
2023/04/08 07:56:09;;;;;;;40.37;22.47;;;8.30;99.90;;;;;;4976970;28;20217;-74
2023/04/08 07:58:35;;;;;;;41.43;23.80;;;8.20;99.90;;;;;;4983436;28;20209;-76
2023/04/08 08:01:00;;;;;;;42.37;23.90;;;8.10;99.90;;;;;;4975894;28;20603;-76
2023/04/08 08:03:26;;;;;;;41.60;22.87;;;8.10;99.90;;;;;;4982081;28;20222;-75
2023/04/08 08:05:52;;;;;;;38.97;19.73;;;7.90;99.90;;;;;;4979460;28;20728;-74
2023/04/08 08:08:17;;;;;;;46.37;22.23;;;7.90;99.90;;;;;;4980885;28;20209;-76
2023/04/08 08:10:43;;;;;;;49.03;23.77;;;7.90;99.90;;;;;;4982607;28;20589;-78
2023/04/08 08:13:09;;;;;;;44.27;23.33;;;7.90;99.90;;;;;;4979992;28;20205;-73
2023/04/08 08:15:34;;;;;;;48.77;23.37;;;8.10;99.90;;;;;;4977092;28;20605;-76
2023/04/08 08:18:00;;;;;;;49.07;23.93;;;8.10;99.90;;;;;;4981937;28;20209;-76
2023/04/08 08:20:26;;;;;;;47.77;23.57;;;8.20;99.90;;;;;;4978600;28;20289;-77
2023/04/08 08:22:51;;;;;;;45.43;23.23;;;8.30;99.90;;;;;;4982732;28;20210;-75
2023/04/08 08:25:17;;;;;;;42.80;22.00;;;8.50;99.90;;;;;;4977971;28;20300;-76
2023/04/08 08:27:44;;;;;;;45.50;23.27;;;8.50;99.90;;;;;;4983309;28;20174;-76
2023/04/08 08:30:10;;;;;;;42.33;21.87;;;8.70;99.90;;;;;;4979241;28;20581;-75
2023/04/08 08:32:36;;;;;;;42.27;23.37;;;8.80;99.90;;;;;;4980296;28;20255;-77
2023/04/08 08:35:02;;;;;;;43.40;23.30;;;8.80;99.90;;;;;;4978561;28;20748;-75
2023/04/08 08:37:27;;;;;;;41.23;22.67;;;8.90;99.90;;;;;;4981867;28;20201;-76
2023/04/08 08:39:53;;;;;;;44.07;22.47;;;9.00;99.90;;;;;;4981139;28;20672;-75
2023/04/08 08:42:23;;;;;;;42.27;22.20;;;9.00;99.90;;;;;;4981169;28;20203;-76
2023/04/08 08:44:49;;;;;;;42.93;22.70;;;9.10;99.90;;;;;;4978214;28;20209;-76
2023/04/08 08:47:16;;;;;;;41.70;20.73;;;9.20;99.90;;;;;;4970283;28;20214;-74
2023/04/08 08:49:42;;;;;;;41.03;22.80;;;9.00;99.90;;;;;;4987000;28;20288;-76
2023/04/08 08:52:08;;;;;;;37.43;20.60;;;9.10;99.90;;;;;;4997130;28;20228;-75
2023/04/08 08:54:34;;;;;;;40.63;22.73;;;9.00;99.90;;;;;;4979414;28;20211;-75
2023/04/08 08:57:00;;;;;;;40.17;22.30;;;8.90;99.90;;;;;;4980851;28;20297;-74
2023/04/08 08:59:25;;;;;;;40.70;21.73;;;9.20;99.90;;;;;;4979825;28;20253;-76
2023/04/08 09:01:51;;;;;;;35.00;18.73;;;9.40;99.90;;;;;;4981543;28;20221;-76
2023/04/08 09:04:19;;;;;;;39.10;21.27;;;9.30;99.90;;;;;;4978060;28;20212;-76
2023/04/08 09:06:48;;;;;;;34.17;20.10;;;9.50;99.90;;;;;;4984463;28;20193;-76
2023/04/08 09:09:14;;;;;;;39.27;19.83;;;9.50;99.90;;;;;;4977697;28;20214;-77
2023/04/08 09:11:46;;;;;;;36.80;20.47;;;9.60;99.90;;;;;;4977730;28;20206;-76
2023/04/08 09:14:24;;;;;;;34.90;19.77;;;9.60;99.90;;;;;;4977305;28;20277;-76
2023/04/08 09:16:51;;;;;;;34.73;20.60;;;9.80;99.90;;;;;;4984719;28;20221;-76
2023/04/08 09:19:17;;;;;;;36.57;20.60;;;9.90;99.90;;;;;;4984057;28;20183;-77
2023/04/08 09:21:43;;;;;;;38.03;21.07;;;10.00;99.90;;;;;;4985516;28;20194;-76
2023/04/08 09:24:26;;;;;;;37.17;20.67;;;9.70;99.90;;;;;;4982011;28;20206;-74
2023/04/08 09:26:52;;;;;;;37.00;20.03;;;9.60;99.90;;;;;;4982548;28;20217;-76
2023/04/08 09:29:22;;;;;;;37.27;21.27;;;9.70;99.90;;;;;;4982243;28;20692;-77
2023/04/08 09:31:53;;;;;;;34.80;19.20;;;9.70;99.90;;;;;;4983678;28;20239;-75
2023/04/08 09:34:20;;;;;;;35.87;20.87;;;9.70;99.90;;;;;;4982851;28;20183;-76
2023/04/08 09:36:47;;;;;;;37.67;21.10;;;9.60;99.90;;;;;;4988429;28;20296;-76
2023/04/08 09:39:14;;;;;;;34.47;18.50;;;9.50;99.90;;;;;;4988606;28;20240;-75
2023/04/08 09:41:41;;;;;;;38.27;20.37;;;9.50;99.90;;;;;;4983374;28;20673;-75
2023/04/08 09:44:09;;;;;;;32.50;20.30;;;9.40;99.90;;;;;;4979776;28;20566;-75
2023/04/08 09:46:50;;;;;;;39.63;21.97;;;9.50;99.90;;;;;;4982785;28;20218;-77
2023/04/08 09:49:25;;;;;;;36.50;20.57;;;9.50;99.90;;;;;;4982012;28;20189;-76
2023/04/08 09:52:06;;;;;;;38.93;21.70;;;9.40;99.90;;;;;;4984908;28;20165;-77
2023/04/08 09:54:52;;;;;;;39.07;20.87;;;9.40;99.90;;;;;;4983303;28;20202;-77
2023/04/08 09:57:30;;;;;;;38.33;20.87;;;9.50;99.90;;;;;;4981112;28;20210;-76
2023/04/08 10:00:15;;;;;;;39.63;20.77;;;9.50;99.90;;;;;;4983046;28;20727;-78
2023/04/08 10:02:55;;;;;;;35.67;20.33;;;9.70;99.90;;;;;;4982986;28;20206;-76
2023/04/08 10:05:21;;;;;;;35.40;19.47;;;9.80;99.90;;;;;;4981706;28;20238;-78
2023/04/08 10:07:49;;;;;;;40.67;21.43;;;9.80;99.90;;;;;;4996496;28;20214;-76
2023/04/08 10:10:15;;;;;;;37.50;21.03;;;9.70;99.90;;;;;;4982096;28;20205;-76
2023/04/08 10:12:41;;;;;;;40.63;20.30;;;9.50;99.90;;;;;;4983032;28;20627;-76
2023/04/08 10:15:26;;;;;;;33.37;19.73;;;9.60;99.90;;;;;;4980717;28;20301;-75
2023/04/08 10:17:54;;;;;;;34.23;19.87;;;9.60;99.90;;;;;;4976890;28;20214;-75
2023/04/08 10:20:34;;;;;;;34.33;19.53;;;9.60;99.90;;;;;;4980430;28;20297;-75
2023/04/08 10:23:01;;;;;;;34.37;20.33;;;9.60;99.90;;;;;;4981614;28;20223;-76
2023/04/08 10:25:30;;;;;;;38.47;19.90;;;9.70;99.90;;;;;;4982731;28;20285;-77
2023/04/08 10:27:56;;;;;;;35.20;20.23;;;9.80;99.90;;;;;;4983487;28;20186;-76
2023/04/08 10:30:27;;;;;;;35.67;20.33;;;10.10;99.90;;;;;;4980019;28;20643;-76
2023/04/08 10:33:00;;;;;;;31.70;18.93;;;10.30;99.90;;;;;;4983985;28;20213;-75
2023/04/08 10:35:41;;;;;;;32.67;19.47;;;10.50;99.90;;;;;;4985332;28;20225;-77
2023/04/08 10:38:07;;;;;;;31.63;18.63;;;10.70;99.90;;;;;;4982608;28;20224;-76
2023/04/08 10:40:41;;;;;;;28.83;18.00;;;11.00;99.90;;;;;;4985549;28;20655;-75
2023/04/08 10:43:11;;;;;;;31.97;18.57;;;11.20;99.90;;;;;;4982237;28;20183;-76
2023/04/08 10:45:38;;;;;;;30.87;18.83;;;11.40;99.90;;;;;;4983586;28;20221;-77
2023/04/08 10:48:21;;;;;;;32.47;19.27;;;11.60;99.90;;;;;;4980999;28;20310;-76
2023/04/08 10:50:58;;;;;;;29.87;18.00;;;11.70;99.90;;;;;;4981822;28;20317;-76
2023/04/08 10:53:32;;;;;;;27.17;17.10;;;11.60;99.90;;;;;;4980474;28;20305;-76
2023/04/08 10:56:15;;;;;;;24.90;16.50;;;11.40;99.90;;;;;;4981496;28;20240;-76
2023/04/08 10:58:51;;;;;;;27.47;16.27;;;11.10;99.90;;;;;;4978904;28;20576;-76
2023/04/08 11:01:18;;;;;;;30.07;18.67;;;11.20;99.90;;;;;;4981383;28;20273;-75
2023/04/08 11:03:44;;;;;;;30.63;19.07;;;11.20;99.90;;;;;;4983041;28;20264;-76
2023/04/08 11:06:10;;;;;;;27.10;16.37;;;11.10;99.90;;;;;;4980594;28;20312;-74
2023/04/08 11:08:37;;;;;;;30.23;17.30;;;10.90;99.90;;;;;;4981751;28;20239;-77
2023/04/08 11:11:07;;;;;;;31.40;17.13;;;11.00;99.90;;;;;;4980705;28;20217;-76
2023/04/08 11:13:35;;;;;;;28.83;17.80;;;11.10;99.90;;;;;;4981133;28;20206;-78
2023/04/08 11:16:01;;;;;;;26.40;16.57;;;11.10;99.90;;;;;;4979500;28;20201;-77
2023/04/08 11:18:28;;;;;;;25.93;16.33;;;11.20;99.90;;;;;;4980736;28;20256;-77
2023/04/08 11:20:53;;;;;;;28.23;16.57;;;11.30;99.90;;;;;;4981582;28;20218;-76
2023/04/08 11:23:21;;;;;;;30.83;17.47;;;11.20;99.90;;;;;;4979592;28;20222;-76
2023/04/08 11:25:47;;;;;;;24.50;16.30;;;11.30;99.90;;;;;;4983383;28;20221;-77
2023/04/08 11:28:13;;;;;;;24.43;15.87;;;11.40;99.90;;;;;;4978464;28;20270;-77
2023/04/08 11:30:40;;;;;;;27.50;16.73;;;11.50;99.90;;;;;;4980653;28;20737;-78
2023/04/08 11:33:09;;;;;;;29.57;14.77;;;11.50;99.90;;;;;;4981885;28;20292;-77
2023/04/08 11:35:40;;;;;;;22.00;14.47;;;11.50;99.90;;;;;;4979741;28;20791;-77
2023/04/08 11:38:07;;;;;;;22.87;13.53;;;11.40;99.90;;;;;;4979926;28;20631;-75
2023/04/08 11:40:33;;;;;;;21.03;13.53;;;11.10;99.90;;;;;;4981861;28;20357;-76
2023/04/08 11:42:58;;;;;;;23.60;13.83;;;11.10;99.90;;;;;;4983858;28;20268;-77
2023/04/08 11:45:25;;;;;;;23.00;15.00;;;11.20;99.90;;;;;;4976155;28;20237;-77
2023/04/08 11:47:50;;;;;;;22.70;15.77;;;11.40;99.90;;;;;;4983813;28;20220;-77
2023/04/08 11:50:28;;;;;;;26.10;16.20;;;11.70;99.90;;;;;;4979826;28;20214;-78
2023/04/08 11:52:54;;;;;;;24.43;14.67;;;11.90;99.90;;;;;;4982428;28;20213;-74
2023/04/08 11:55:26;;;;;;;19.40;13.27;;;11.90;99.90;;;;;;4980294;28;20625;-74
2023/04/08 11:57:53;;;;;;;19.37;12.47;;;12.10;99.90;;;;;;4982386;28;20261;-76
2023/04/08 12:00:19;;;;;;;21.90;14.43;;;11.70;99.90;;;;;;4980323;28;20218;-77
2023/04/08 12:02:48;;;;;;;23.67;14.67;;;11.80;99.90;;;;;;4982738;28;20205;-76
2023/04/08 12:05:15;;;;;;;23.77;15.63;;;11.80;99.90;;;;;;4980279;28;20232;-76
2023/04/08 12:07:41;;;;;;;24.10;15.30;;;11.90;99.90;;;;;;4986443;28;20213;-77
2023/04/08 12:10:08;;;;;;;23.07;15.07;;;11.90;99.90;;;;;;4976323;28;20286;-76
2023/04/08 12:12:34;;;;;;;24.27;15.60;;;11.90;99.90;;;;;;4986905;28;20209;-76
2023/04/08 12:15:00;;;;;;;23.43;14.70;;;11.80;99.90;;;;;;4986127;28;20244;-75
2023/04/08 12:17:25;;;;;;;21.93;15.37;;;11.70;99.90;;;;;;4989773;28;20220;-75
2023/04/08 12:19:51;;;;;;;25.93;16.20;;;11.60;99.90;;;;;;4983161;28;20712;-77
2023/04/08 12:22:16;;;;;;;27.90;16.80;;;11.70;99.90;;;;;;4988021;28;20192;-77
2023/04/08 12:24:42;;;;;;;26.97;16.80;;;11.70;99.90;;;;;;4985648;28;20175;-76
2023/04/08 12:27:08;;;;;;;25.47;16.03;;;11.70;99.90;;;;;;4980640;28;20633;-75
2023/04/08 12:29:33;;;;;;;25.80;15.53;;;11.80;99.90;;;;;;4981703;28;20214;-74
2023/04/08 12:32:01;;;;;;;24.53;14.57;;;11.90;99.90;;;;;;4980501;28;20256;-75
2023/04/08 12:34:26;;;;;;;23.30;14.67;;;11.80;99.90;;;;;;4981172;28;20178;-76
2023/04/08 12:36:52;;;;;;;25.83;15.50;;;12.00;99.90;;;;;;4991767;23;20337;-76